Time;durP1;ratioP1;P1;durP2;ratioP2;P2;SDS_P1;SDS_P2;PMS_P1;PMS_P2;Temp;Humidity;BMP_temperature;BMP_pressure;BME280_temperature;BME280_humidity;BME280_pressure;Samples;Min_cycle;Max_cycle;Signal;HPM_P1;HPM_P2
2022/01/01 00:04:09;;;;;;;;;;;;;;;21.67;39.29;96560.09;10437018;28;1821;-46
2022/01/01 00:09:10;;;;;;;;;;;;;;;21.67;39.30;96560.91;10435464;28;1958;-46
2022/01/01 00:14:10;;;;;;;;;;;;;;;21.63;39.25;96559.03;10433029;28;2147;-44
2022/01/01 00:19:11;;;;;;;;;;;;;;;21.65;39.32;96552.44;10436175;28;1868;-45
2022/01/01 00:24:11;;;;;;;;;;;;;;;21.65;39.39;96559.56;10433951;28;1847;-47
2022/01/01 00:29:12;;;;;;;;;;;;;;;21.64;39.32;96556.13;10436464;28;1980;-44
2022/01/01 00:34:13;;;;;;;;;;;;;;;21.64;39.09;96560.59;10436420;28;1780;-45
2022/01/01 00:39:13;;;;;;;;;;;;;;;21.64;39.30;96565.88;10433966;28;1870;-50
2022/01/01 00:44:14;;;;;;;;;;;;;;;21.66;38.96;96575.13;10435826;28;1851;-45
2022/01/01 00:49:15;;;;;;;;;;;;;;;21.66;39.30;96574.34;10432676;28;1985;-48
2022/01/01 00:54:15;;;;;;;;;;;;;;;21.67;39.26;96586.47;10436058;28;1727;-51
2022/01/01 00:59:16;;;;;;;;;;;;;;;21.69;39.05;96594.94;10434807;28;1785;-48
2022/01/01 01:04:16;;;;;;;;;;;;;;;21.62;39.13;96581.97;10442552;28;1844;-46
2022/01/01 01:09:17;;;;;;;;;;;;;;;21.65;39.17;96588.59;10439926;28;1981;-48
2022/01/01 01:14:20;;;;;;;;;;;;;;;21.64;38.91;96590.44;10444150;28;1715;-44
2022/01/01 01:19:21;;;;;;;;;;;;;;;21.62;39.12;96612.84;10442435;28;1880;-47
2022/01/01 01:24:25;;;;;;;;;;;;;;;21.63;38.94;96606.53;10434424;28;1755;-45
2022/01/01 01:29:25;;;;;;;;;;;;;;;21.64;38.83;96608.09;10441953;28;1918;-45
2022/01/01 01:34:26;;;;;;;;;;;;;;;21.64;38.96;96621.28;10439284;28;1804;-46
2022/01/01 01:39:27;;;;;;;;;;;;;;;21.60;39.14;96626.31;10441502;28;1758;-48
2022/01/01 01:44:32;;;;;;;;;;;;;;;21.63;38.75;96633.72;10439229;28;1797;-44
2022/01/01 01:49:33;;;;;;;;;;;;;;;21.63;38.71;96633.72;10436085;28;1922;-46
2022/01/01 01:54:34;;;;;;;;;;;;;;;21.61;39.02;96629.75;10440481;28;1950;-45
2022/01/01 01:59:34;;;;;;;;;;;;;;;21.61;38.78;96624.47;10440331;28;1914;-49
2022/01/01 02:04:35;;;;;;;;;;;;;;;21.60;38.94;96617.59;10439379;28;1912;-48
2022/01/01 02:09:36;;;;;;;;;;;;;;;21.59;39.13;96621.28;10438507;28;2050;-46
2022/01/01 02:20:15;;;;;;;;;;;;;;;21.59;38.94;96622.09;10433340;28;1997;-44
2022/01/01 02:25:17;;;;;;;;;;;;;;;21.62;38.69;96626.03;10438513;28;1960;-49
2022/01/01 02:30:17;;;;;;;;;;;;;;;21.60;38.83;96622.88;10439322;28;1934;-48
2022/01/01 02:35:18;;;;;;;;;;;;;;;21.60;38.72;96620.22;10437725;28;1959;-46
2022/01/01 02:40:19;;;;;;;;;;;;;;;21.58;38.86;96612.56;10438357;28;1992;-45
2022/01/01 02:45:20;;;;;;;;;;;;;;;21.57;39.00;96615.47;10440498;28;1941;-47
2022/01/01 02:50:21;;;;;;;;;;;;;;;21.61;38.68;96613.91;10437401;28;1969;-46
2022/01/01 02:55:22;;;;;;;;;;;;;;;21.62;38.43;96612.84;10435467;28;1971;-46
2022/01/01 03:00:22;;;;;;;;;;;;;;;21.58;38.73;96620.50;10438232;28;1857;-45
2022/01/01 03:05:23;;;;;;;;;;;;;;;21.58;38.73;96628.41;10429217;28;1929;-47
2022/01/01 03:10:24;;;;;;;;;;;;;;;21.60;38.49;96628.13;10415290;28;2144;-46
2022/01/01 03:15:25;;;;;;;;;;;;;;;21.60;38.65;96630.78;10421878;28;2160;-46
2022/01/01 03:20:28;;;;;;;;;;;;;;;21.62;38.76;96633.94;10421915;28;2175;-49
2022/01/01 03:25:32;;;;;;;;;;;;;;;21.61;38.56;96637.66;10429201;28;1962;-46
2022/01/01 03:30:43;;;;;;;;;;;;;;;21.58;38.67;96651.34;10428662;28;1967;-49
2022/01/01 03:35:44;;;;;;;;;;;;;;;21.59;38.68;96652.94;10437350;28;1859;-48
2022/01/01 03:40:44;;;;;;;;;;;;;;;21.62;38.60;96668.25;10429258;28;1825;-47
2022/01/01 03:45:45;;;;;;;;;;;;;;;21.59;38.43;96671.41;10431323;28;1826;-50
2022/01/01 03:50:45;;;;;;;;;;;;;;;21.59;38.62;96679.34;10421341;28;1975;-52
2022/01/01 03:55:45;;;;;;;;;;;;;;;21.60;38.54;96680.91;10428359;28;2012;-45
2022/01/01 04:00:46;;;;;;;;;;;;;;;21.59;38.47;96680.13;10417563;28;1899;-46
2022/01/01 04:05:46;;;;;;;;;;;;;;;21.58;38.49;96675.09;10430957;28;1888;-50
2022/01/01 04:10:47;;;;;;;;;;;;;;;21.56;38.38;96672.72;10425947;28;1971;-50
2022/01/01 04:15:47;;;;;;;;;;;;;;;21.60;38.29;96667.72;10426601;28;1976;-46
2022/01/01 04:20:47;;;;;;;;;;;;;;;21.56;38.52;96671.91;10427480;28;2014;-49
2022/01/01 04:25:48;;;;;;;;;;;;;;;21.55;38.21;96659.78;10435235;28;1780;-48
2022/01/01 04:30:48;;;;;;;;;;;;;;;21.57;38.40;96660.34;10436663;28;1969;-45
2022/01/01 04:35:49;;;;;;;;;;;;;;;21.59;38.13;96652.94;10434470;28;1836;-50
2022/01/01 04:40:50;;;;;;;;;;;;;;;21.58;38.20;96661.91;10441831;28;1856;-45
2022/01/01 04:45:51;;;;;;;;;;;;;;;21.61;38.08;96671.97;10445742;28;1904;-46
2022/01/01 04:50:51;;;;;;;;;;;;;;;21.59;38.12;96671.41;10440660;28;1985;-49
2022/01/01 04:55:52;;;;;;;;;;;;;;;21.58;38.26;96672.47;10443616;28;1798;-48
2022/01/01 05:00:52;;;;;;;;;;;;;;;21.61;38.19;96674.59;10438852;28;1818;-49
2022/01/01 05:05:52;;;;;;;;;;;;;;;21.58;38.27;96673.25;10444656;28;1836;-47
2022/01/01 05:10:53;;;;;;;;;;;;;;;21.56;38.24;96678.00;10438009;28;1910;-49
2022/01/01 05:15:55;;;;;;;;;;;;;;;21.57;38.13;96687.50;10443034;28;1779;-48
2022/01/01 05:20:55;;;;;;;;;;;;;;;21.60;38.16;96694.09;10439469;28;1804;-47
2022/01/01 05:25:56;;;;;;;;;;;;;;;21.58;38.09;96698.84;10431758;28;2280;-49
2022/01/01 05:30:56;;;;;;;;;;;;;;;21.61;38.21;96693.06;10437533;28;1969;-45
2022/01/01 05:35:57;;;;;;;;;;;;;;;21.59;38.09;96690.69;10437824;28;1839;-50
2022/01/01 05:40:57;;;;;;;;;;;;;;;21.58;38.22;96683.00;10437476;28;1781;-49
2022/01/01 05:45:58;;;;;;;;;;;;;;;21.59;38.25;96688.06;10440249;28;1823;-47
2022/01/01 05:50:58;;;;;;;;;;;;;;;21.59;38.15;96679.34;10429830;28;1899;-47
2022/01/01 05:55:58;;;;;;;;;;;;;;;21.57;38.35;96671.69;10435179;28;1800;-46
2022/01/01 06:00:59;;;;;;;;;;;;;;;21.61;38.17;96685.94;10437455;28;1830;-46
2022/01/01 06:05:59;;;;;;;;;;;;;;;21.61;37.93;96687.78;10441336;28;1839;-46
2022/01/01 06:11:01;;;;;;;;;;;;;;;21.60;38.16;96691.47;10440048;28;1918;-48
2022/01/01 06:16:02;;;;;;;;;;;;;;;21.61;38.22;96690.44;10428518;28;1847;-45
2022/01/01 06:21:04;;;;;;;;;;;;;;;21.59;38.04;96687.25;10435868;28;1875;-48
2022/01/01 06:26:04;;;;;;;;;;;;;;;21.61;38.12;96687.78;10432453;28;1883;-46
2022/01/01 06:31:04;;;;;;;;;;;;;;;21.61;38.17;96685.94;10434124;28;1922;-44
2022/01/01 06:36:05;;;;;;;;;;;;;;;21.61;38.03;96682.50;10437234;28;1936;-50
2022/01/01 06:41:05;;;;;;;;;;;;;;;21.63;38.06;96683.03;10437233;28;1877;-50
2022/01/01 06:46:06;;;;;;;;;;;;;;;21.63;37.97;96685.69;10440441;28;1718;-47
2022/01/01 06:51:06;;;;;;;;;;;;;;;21.62;37.81;96690.16;10438297;28;1974;-48
2022/01/01 06:56:07;;;;;;;;;;;;;;;21.63;37.92;96681.22;10435852;28;1817;-47
2022/01/01 07:01:07;;;;;;;;;;;;;;;21.64;38.02;96688.06;10434789;28;1844;-49
2022/01/01 07:06:07;;;;;;;;;;;;;;;21.64;37.99;96676.69;10439178;28;1802;-45
2022/01/01 07:11:08;;;;;;;;;;;;;;;21.62;37.83;96674.34;10431115;28;1898;-46
2022/01/01 07:16:08;;;;;;;;;;;;;;;21.62;37.84;96679.59;10427404;28;1813;-48
2022/01/01 07:21:09;;;;;;;;;;;;;;;21.64;37.70;96692.53;10435220;28;1913;-45
2022/01/01 07:26:09;;;;;;;;;;;;;;;21.63;37.68;96690.97;10434505;28;1860;-47
2022/01/01 07:31:09;;;;;;;;;;;;;;;21.63;37.79;96690.97;10434814;28;1940;-48
2022/01/01 07:36:10;;;;;;;;;;;;;;;21.65;37.46;96683.59;10438866;28;1830;-45
2022/01/01 07:41:10;;;;;;;;;;;;;;;21.65;37.39;96673.03;10435987;28;1948;-48
2022/01/01 07:46:11;;;;;;;;;;;;;;;21.64;37.47;96676.69;10433747;28;1768;-48
2022/01/01 07:51:11;;;;;;;;;;;;;;;21.67;37.52;96670.94;10435525;28;1972;-49
2022/01/01 07:56:11;;;;;;;;;;;;;;;21.65;37.42;96673.03;10436142;28;1789;-45
2022/01/01 08:01:12;;;;;;;;;;;;;;;21.65;37.47;96671.19;10437428;28;2013;-49
2022/01/01 08:06:12;;;;;;;;;;;;;;;21.67;37.43;96674.38;10438981;28;1963;-45
2022/01/01 08:11:13;;;;;;;;;;;;;;;21.66;37.59;96678.03;10433813;28;1911;-49
2022/01/01 08:16:13;;;;;;;;;;;;;;;21.68;37.46;96675.94;10444616;28;1840;-45
2022/01/01 08:21:13;;;;;;;;;;;;;;;21.67;37.40;96677.00;10435389;28;1860;-49
2022/01/01 08:26:14;;;;;;;;;;;;;;;21.70;37.56;96691.53;10444287;28;1823;-48
2022/01/01 08:31:14;;;;;;;;;;;;;;;21.71;37.48;96693.09;10441967;28;1918;-46
2022/01/01 08:36:15;;;;;;;;;;;;;;;21.72;37.46;96707.91;10446023;28;1900;-45
2022/01/01 08:41:16;;;;;;;;;;;;;;;21.72;37.45;96705.25;10445202;28;1780;-48
2022/01/01 08:46:16;;;;;;;;;;;;;;;21.74;37.41;96711.84;10446737;28;1860;-51
2022/01/01 08:51:17;;;;;;;;;;;;;;;21.71;37.63;96712.38;10437219;28;1973;-49
2022/01/01 08:56:17;;;;;;;;;;;;;;;21.72;37.66;96715.81;10430045;28;1871;-51
2022/01/01 09:01:18;;;;;;;;;;;;;;;21.73;37.54;96714.75;10441362;28;1843;-48
2022/01/01 09:06:18;;;;;;;;;;;;;;;21.74;37.77;96709.22;10430838;28;2170;-46
2022/01/01 09:11:19;;;;;;;;;;;;;;;21.75;37.71;96702.88;10433277;28;1953;-45
2022/01/01 09:16:20;;;;;;;;;;;;;;;21.72;36.19;96699.97;10432786;28;1858;-46
2022/01/01 09:21:21;;;;;;;;;;;;;;;21.60;35.43;96709.94;10431579;28;1980;-46
2022/01/01 09:26:21;;;;;;;;;;;;;;;21.51;34.80;96714.13;10441186;28;1784;-47
2022/01/01 09:31:22;;;;;;;;;;;;;;;21.44;34.59;96721.47;10441489;28;1910;-47
2022/01/01 09:36:23;;;;;;;;;;;;;;;21.41;34.48;96721.97;10444341;28;1869;-47
2022/01/01 09:41:23;;;;;;;;;;;;;;;21.37;34.22;96740.16;10436431;28;1842;-45
2022/01/01 09:46:26;;;;;;;;;;;;;;;21.38;34.01;96744.38;10434766;28;1932;-45
2022/01/01 09:51:26;;;;;;;;;;;;;;;21.37;33.71;96744.66;10426898;28;1951;-50
2022/01/01 09:56:27;;;;;;;;;;;;;;;21.40;33.86;96741.47;10429047;28;2009;-51
2022/01/01 10:01:28;;;;;;;;;;;;;;;21.39;33.66;96737.28;10422942;28;2334;-49
2022/01/01 10:06:30;;;;;;;;;;;;;;;21.39;33.51;96740.69;10426203;28;2015;-48
2022/01/01 10:11:32;;;;;;;;;;;;;;;21.38;33.60;96730.41;10432178;28;1910;-49
2022/01/01 10:16:44;;;;;;;;;;;;;;;21.39;33.56;96721.44;10437582;28;3085;-45
2022/01/01 10:21:50;;;;;;;;;;;;;;;21.39;33.33;96724.84;10430586;28;1841;-45
2022/01/01 10:32:10;;;;;;;;;;;;;;;21.43;32.99;96728.56;10435789;28;1934;-50
2022/01/01 10:37:12;;;;;;;;;;;;;;;21.45;33.31;96730.97;10436132;28;1842;-45
2022/01/01 10:42:12;;;;;;;;;;;;;;;21.47;32.99;96723.59;10427561;28;1961;-48
2022/01/01 10:47:32;;;;;;;;;;;;;;;21.51;32.90;96716.75;10422790;28;1988;-47
2022/01/01 10:52:33;;;;;;;;;;;;;;;21.51;33.22;96709.66;10431277;28;1849;-49
2022/01/01 10:57:38;;;;;;;;;;;;;;;21.53;33.01;96706.75;10435489;28;1792;-45
2022/01/01 11:02:39;;;;;;;;;;;;;;;21.57;33.01;96694.63;10437596;28;1767;-46
2022/01/01 11:07:49;;;;;;;;;;;;;;;21.60;33.46;96675.63;10436522;28;1911;-48
2022/01/01 11:12:50;;;;;;;;;;;;;;;21.69;34.48;96682.81;10439202;28;1776;-46
2022/01/01 11:17:50;;;;;;;;;;;;;;;21.76;33.87;96686.00;10435146;28;1900;-46
2022/01/01 11:22:51;;;;;;;;;;;;;;;21.77;33.87;96676.22;10428402;28;1858;-45
2022/01/01 11:27:53;;;;;;;;;;;;;;;21.79;34.24;96672.28;10436800;28;1990;-49
2022/01/01 11:33:05;;;;;;;;;;;;;;;21.83;34.59;96675.22;10433516;28;1804;-48
2022/01/01 11:38:07;;;;;;;;;;;;;;;21.82;35.21;96668.38;10437167;28;1892;-42
2022/01/01 11:43:27;;;;;;;;;;;;;;;21.88;35.61;96667.34;10431206;28;1863;-49
2022/01/01 11:48:31;;;;;;;;;;;;;;;21.91;35.58;96669.44;10432207;28;1980;-52
2022/01/01 11:53:32;;;;;;;;;;;;;;;21.92;35.78;96647.28;10432491;28;1809;-51
2022/01/01 11:58:46;;;;;;;;;;;;;;;21.94;35.99;96644.38;10431112;28;1774;-48
2022/01/01 12:03:50;;;;;;;;;;;;;;;21.94;36.06;96647.03;10432762;28;1744;-53
2022/01/01 12:08:51;;;;;;;;;;;;;;;21.92;35.99;96635.94;10428684;28;1976;-49
2022/01/01 12:13:58;;;;;;;;;;;;;;;21.92;36.05;96639.38;10433801;28;2106;-49
2022/01/01 12:18:59;;;;;;;;;;;;;;;21.88;34.34;96638.31;10428796;28;1849;-48
2022/01/01 12:24:00;;;;;;;;;;;;;;;21.69;33.92;96637.16;10432864;28;1460;-53
2022/01/01 12:29:05;;;;;;;;;;;;;;;21.53;33.67;96646.88;10428640;28;2028;-53
2022/01/01 12:34:10;;;;;;;;;;;;;;;21.46;33.26;96640.22;10443559;23;3706;-64
2022/01/01 12:39:10;;;;;;;;;;;;;;;21.44;33.74;96639.69;10434180;28;1321;-64
2022/01/01 12:44:18;;;;;;;;;;;;;;;21.42;33.82;96633.88;10414812;28;1422;-64
2022/01/01 12:49:19;;;;;;;;;;;;;;;21.36;33.72;96634.91;10394552;28;1973;-64
2022/01/01 12:54:19;;;;;;;;;;;;;;;21.32;33.83;96637.28;10390793;28;1377;-62
2022/01/01 12:59:21;;;;;;;;;;;;;;;21.32;33.45;96632.00;10396495;28;1938;-63
2022/01/01 13:04:26;;;;;;;;;;;;;;;21.26;33.93;96626.97;10407834;28;1408;-64
2022/01/01 13:09:30;;;;;;;;;;;;;;;21.31;33.90;96630.41;10396265;28;1910;-63
2022/01/01 13:14:34;;;;;;;;;;;;;;;21.17;33.97;96625.84;10400110;28;1388;-63
2022/01/01 13:19:35;;;;;;;;;;;;;;;21.07;33.67;96618.69;10402493;28;1586;-62
2022/01/01 13:24:37;;;;;;;;;;;;;;;21.00;33.91;96613.59;10395766;28;1674;-61
2022/01/01 13:29:40;;;;;;;;;;;;;;;20.94;33.69;96614.63;10401002;28;1956;-63
2022/01/01 13:34:47;;;;;;;;;;;;;;;20.91;33.94;96623.06;10395915;28;1611;-63
2022/01/01 13:39:48;;;;;;;;;;;;;;;21.03;34.07;96618.41;10398016;28;1930;-64
2022/01/01 13:44:49;;;;;;;;;;;;;;;20.87;33.93;96621.19;10397020;28;1323;-63
2022/01/01 13:49:50;;;;;;;;;;;;;;;20.69;34.19;96619.72;10399451;28;1971;-63
2022/01/01 13:54:59;;;;;;;;;;;;;;;20.52;34.42;96621.72;10396881;28;1409;-62
2022/01/01 13:59:59;;;;;;;;;;;;;;;20.38;34.81;96607.38;10397725;28;1255;-63
2022/01/01 14:05:00;;;;;;;;;;;;;;;20.37;34.76;96612.91;10398828;28;1819;-64
2022/01/01 14:10:14;;;;;;;;;;;;;;;20.29;34.72;96611.53;10398426;28;1906;-61
2022/01/01 14:15:15;;;;;;;;;;;;;;;20.34;35.15;96608.91;10399350;28;1786;-59
2022/01/01 14:20:19;;;;;;;;;;;;;;;20.72;35.54;96607.91;10397236;28;1819;-61
2022/01/01 14:25:20;;;;;;;;;;;;;;;21.18;37.50;96606.34;10398464;28;1890;-62
2022/01/01 14:30:21;;;;;;;;;;;;;;;21.39;37.36;96600.13;10399614;28;1894;-62
2022/01/01 14:35:21;;;;;;;;;;;;;;;21.51;37.26;96601.50;10403939;28;1875;-63
2022/01/01 14:40:22;;;;;;;;;;;;;;;21.58;37.76;96595.94;10397152;28;1884;-63
2022/01/01 14:45:23;;;;;;;;;;;;;;;21.64;37.50;96592.28;10400970;28;1802;-64
2022/01/01 14:50:27;;;;;;;;;;;;;;;21.65;37.56;96583.31;10395955;28;1910;-62
2022/01/01 14:55:37;;;;;;;;;;;;;;;21.68;37.69;96583.56;10381447;28;1743;-62
2022/01/01 15:00:38;;;;;;;;;;;;;;;21.70;37.37;96580.69;10396792;28;1891;-61
2022/01/01 15:05:39;;;;;;;;;;;;;;;21.71;37.70;96577.00;10413575;28;2159;-61
2022/01/01 15:10:39;;;;;;;;;;;;;;;21.75;37.53;96580.69;10401225;28;1906;-61
2022/01/01 15:15:40;;;;;;;;;;;;;;;21.73;37.57;96578.31;10398714;28;1804;-61
2022/01/01 15:20:42;;;;;;;;;;;;;;;21.74;37.23;96579.13;10400654;28;1901;-61
2022/01/01 15:25:44;;;;;;;;;;;;;;;21.75;37.32;96567.50;10402768;28;1853;-61
2022/01/01 15:30:47;;;;;;;;;;;;;;;21.75;37.17;96565.66;10400567;28;1953;-61
2022/01/01 15:41:02;;;;;;;;;;;;;;;21.76;37.04;96569.09;10387319;28;1907;-61
2022/01/01 15:46:03;;;;;;;;;;;;;;;21.77;36.93;96573.31;10398002;28;1807;-62
2022/01/01 15:51:05;;;;;;;;;;;;;;;21.78;37.04;96572.28;10385868;28;1939;-62
2022/01/01 15:56:06;;;;;;;;;;;;;;;21.78;37.12;96567.00;10393739;28;1770;-62
2022/01/01 16:01:09;;;;;;;;;;;;;;;21.78;37.16;96557.22;10394889;28;1927;-65
2022/01/01 16:06:10;;;;;;;;;;;;;;;21.79;37.23;96547.44;10398318;28;1894;-61
2022/01/01 16:11:12;;;;;;;;;;;;;;;21.80;37.33;96544.53;10384335;28;2237;-61
2022/01/01 16:16:14;;;;;;;;;;;;;;;21.80;37.33;96539.25;10396108;28;1834;-62
2022/01/01 16:21:15;;;;;;;;;;;;;;;21.82;37.80;96529.28;10386303;28;2163;-61
2022/01/01 16:26:17;;;;;;;;;;;;;;;21.81;37.59;96529.50;10394660;28;1787;-62
2022/01/01 16:31:19;;;;;;;;;;;;;;;21.82;37.54;96534.53;10397253;28;1915;-62
2022/01/01 16:36:21;;;;;;;;;;;;;;;21.81;37.96;96526.88;10406250;28;1790;-62
2022/01/01 16:41:37;;;;;;;;;;;;;;;21.76;38.05;96517.09;10406950;28;1807;-62
2022/01/01 16:46:56;;;;;;;;;;;;;;;21.75;38.05;96520.81;10403113;28;2020;-60
2022/01/01 16:52:01;;;;;;;;;;;;;;;21.73;38.11;96522.13;10404864;28;1788;-60
2022/01/01 16:57:05;;;;;;;;;;;;;;;21.73;38.09;96516.84;10407275;28;1807;-63
2022/01/01 17:02:08;;;;;;;;;;;;;;;21.74;37.96;96518.44;10386507;28;1771;-64
2022/01/01 17:07:09;;;;;;;;;;;;;;;21.68;38.21;96509.69;10407796;28;1914;-63
2022/01/01 17:12:10;;;;;;;;;;;;;;;21.67;38.17;96500.22;10412979;28;1782;-62
2022/01/01 17:17:23;;;;;;;;;;;;;;;21.65;38.09;96510.25;10392177;28;1841;-64
2022/01/01 17:22:28;;;;;;;;;;;;;;;21.62;38.27;96505.47;10394699;28;1789;-64
2022/01/01 17:27:31;;;;;;;;;;;;;;;21.61;38.31;96508.38;10397214;28;1914;-63
2022/01/01 17:32:32;;;;;;;;;;;;;;;21.59;38.46;96506.00;10379123;28;1858;-62
2022/01/01 17:38:01;;;;;;;;;;;;;;;21.56;38.17;96511.00;10404306;28;1814;-60
2022/01/01 17:43:02;;;;;;;;;;;;;;;21.56;38.16;96506.53;10403018;28;1874;-62
2022/01/01 17:48:03;;;;;;;;;;;;;;;21.56;38.24;96500.44;10417373;28;1960;-61
2022/01/01 17:53:04;;;;;;;;;;;;;;;21.56;38.38;96495.16;10414248;28;1969;-61
2022/01/01 17:58:05;;;;;;;;;;;;;;;21.56;38.42;96495.97;10402675;28;1795;-60
2022/01/01 18:03:07;;;;;;;;;;;;;;;21.57;38.22;96500.19;10401084;28;1783;-62
2022/01/01 18:08:16;;;;;;;;;;;;;;;21.58;38.17;96503.59;10396696;28;1934;-61
2022/01/01 18:13:23;;;;;;;;;;;;;;;21.66;39.14;96500.44;10395449;28;1827;-63
2022/01/01 18:18:23;;;;;;;;;;;;;;;21.77;39.47;96502.06;10363410;28;1863;-63
2022/01/01 18:23:24;;;;;;;;;;;;;;;21.83;39.36;96507.13;10395533;28;1716;-63
2022/01/01 18:28:26;;;;;;;;;;;;;;;21.75;39.16;96498.88;10401937;28;1930;-63
2022/01/01 18:33:27;;;;;;;;;;;;;;;21.75;39.48;96490.97;10390456;28;1839;-63
2022/01/01 18:38:30;;;;;;;;;;;;;;;21.83;39.84;96490.47;10372561;28;1782;-59
2022/01/01 18:43:31;;;;;;;;;;;;;;;21.91;40.11;96487.31;10401372;28;1815;-62
2022/01/01 18:48:32;;;;;;;;;;;;;;;21.97;39.96;96480.97;10399568;28;1910;-63
2022/01/01 18:53:33;;;;;;;;;;;;;;;22.05;39.97;96480.44;10401048;28;1759;-63
2022/01/01 18:58:33;;;;;;;;;;;;;;;21.97;40.25;96469.66;10394845;28;1889;-63
2022/01/01 19:03:35;;;;;;;;;;;;;;;21.87;40.60;96478.34;10383986;28;1825;-62
2022/01/01 19:08:36;;;;;;;;;;;;;;;21.86;40.81;96474.13;10397796;28;1971;-62
2022/01/01 19:13:44;;;;;;;;;;;;;;;21.85;40.74;96472.53;10395998;28;1811;-63
2022/01/01 19:18:45;;;;;;;;;;;;;;;21.83;40.49;96479.91;10415108;28;1802;-62
2022/01/01 19:23:47;;;;;;;;;;;;;;;21.80;40.70;96480.44;10395840;28;1795;-61
2022/01/01 19:28:48;;;;;;;;;;;;;;;21.79;40.45;96473.56;10392860;28;1910;-62
2022/01/01 19:33:49;;;;;;;;;;;;;;;21.76;40.29;96468.81;10377056;28;1720;-60
2022/01/01 19:38:50;;;;;;;;;;;;;;;21.75;40.58;96470.66;10395387;28;1943;-63
2022/01/01 19:44:10;;;;;;;;;;;;;;;21.73;40.68;96461.41;10395650;28;1791;-61
2022/01/01 19:49:12;;;;;;;;;;;;;;;21.74;40.81;96449.81;10390385;28;1977;-61
2022/01/01 19:54:12;;;;;;;;;;;;;;;21.73;40.88;96449.03;10391158;28;1768;-63
2022/01/01 19:59:13;;;;;;;;;;;;;;;21.75;41.04;96448.75;10439337;23;1794;-74
2022/01/01 20:04:14;;;;;;;;;;;;;;;21.78;40.68;96437.69;10458413;28;1830;-73
2022/01/01 20:09:15;;;;;;;;;;;;;;;21.76;40.02;96439.78;10449807;28;1910;-74
2022/01/01 20:14:15;;;;;;;;;;;;;;;21.75;39.61;96440.84;10460655;28;1813;-72
2022/01/01 20:19:16;;;;;;;;;;;;;;;21.76;40.09;96439.78;10460779;28;1856;-73
2022/01/01 20:24:17;;;;;;;;;;;;;;;21.73;40.76;96446.38;10462305;28;1818;-72
2022/01/01 20:29:17;;;;;;;;;;;;;;;21.76;40.79;96423.97;10463157;28;1926;-74
2022/01/01 20:34:18;;;;;;;;;;;;;;;21.77;40.45;96417.63;10455980;28;1787;-74
2022/01/01 20:39:19;;;;;;;;;;;;;;;21.82;40.34;96418.41;10462160;28;1848;-74
2022/01/01 20:44:19;;;;;;;;;;;;;;;21.84;39.96;96423.47;10463717;28;1808;-73
2022/01/01 20:49:20;;;;;;;;;;;;;;;21.87;39.70;96412.34;10462157;28;1975;-74
2022/01/01 20:54:21;;;;;;;;;;;;;;;21.91;39.62;96410.75;10467257;28;1829;-73
2022/01/01 20:59:21;;;;;;;;;;;;;;;21.86;39.40;96398.34;10463763;28;1785;-74
2022/01/01 21:04:22;;;;;;;;;;;;;;;21.85;39.28;96406.53;10463289;28;1764;-73
2022/01/01 21:09:24;;;;;;;;;;;;;;;21.91;39.19;96402.06;10463866;28;1971;-72
2022/01/01 21:14:24;;;;;;;;;;;;;;;21.91;39.16;96392.28;10462714;28;1822;-73
2022/01/01 21:19:25;;;;;;;;;;;;;;;21.89;39.30;96389.13;10460714;28;1887;-75
2022/01/01 21:24:25;;;;;;;;;;;;;;;21.90;38.97;96390.72;10473610;28;1825;-74
2022/01/01 21:29:26;;;;;;;;;;;;;;;21.91;38.13;96392.28;10467710;28;2057;-74
2022/01/01 21:34:27;;;;;;;;;;;;;;;21.80;36.25;96390.72;10463094;28;1837;-74
2022/01/01 21:39:28;;;;;;;;;;;;;;;21.70;35.89;96385.44;10470527;28;1955;-73
2022/01/01 21:44:29;;;;;;;;;;;;;;;21.61;35.02;96393.09;10484584;23;2061;-47
2022/01/01 21:49:30;;;;;;;;;;;;;;;21.53;35.28;96393.63;10481236;28;1914;-48
2022/01/01 21:54:31;;;;;;;;;;;;;;;21.47;34.52;96399.16;10479222;28;1916;-47
2022/01/01 21:59:31;;;;;;;;;;;;;;;21.43;34.45;96392.81;10469125;28;1790;-45
2022/01/01 22:04:32;;;;;;;;;;;;;;;21.49;34.80;96389.13;10467282;28;1740;-49
2022/01/01 22:09:33;;;;;;;;;;;;;;;21.60;35.13;96385.41;10466262;28;1973;-45
2022/01/01 22:14:33;;;;;;;;;;;;;;;21.67;36.69;96389.41;10464400;28;1714;-48
2022/01/01 22:19:34;;;;;;;;;;;;;;;21.74;35.81;96375.94;10469473;28;1903;-48
2022/01/01 22:24:35;;;;;;;;;;;;;;;21.74;36.66;96381.22;10464701;28;1944;-50
2022/01/01 22:29:35;;;;;;;;;;;;;;;21.81;36.24;96389.63;10472123;28;1973;-50
2022/01/01 22:34:37;;;;;;;;;;;;;;;21.78;35.50;96372.47;10466223;28;1850;-50
2022/01/01 22:39:38;;;;;;;;;;;;;;;21.81;36.39;96360.59;10462231;28;1871;-51
2022/01/01 22:44:39;;;;;;;;;;;;;;;21.81;36.97;96365.88;10467951;28;1842;-44
2022/01/01 22:49:39;;;;;;;;;;;;;;;21.80;36.03;96364.31;10465262;28;1906;-44
2022/01/01 22:54:40;;;;;;;;;;;;;;;21.81;36.18;96358.78;10460355;28;2134;-47
2022/01/01 22:59:41;;;;;;;;;;;;;;;21.85;36.50;96361.69;10466262;28;1777;-45
2022/01/01 23:04:41;;;;;;;;;;;;;;;21.82;36.37;96365.63;10449433;28;1968;-46
2022/01/01 23:09:42;;;;;;;;;;;;;;;21.84;36.31;96368.81;10465785;28;1990;-47
2022/01/01 23:14:43;;;;;;;;;;;;;;;21.86;36.72;96363.28;10467346;28;1970;-48
2022/01/01 23:19:44;;;;;;;;;;;;;;;21.84;36.57;96354.84;10453672;28;1802;-45
2022/01/01 23:24:44;;;;;;;;;;;;;;;21.85;35.68;96351.13;10466612;28;1797;-45
2022/01/01 23:29:45;;;;;;;;;;;;;;;21.83;35.77;96332.13;10459284;28;2007;-47
2022/01/01 23:34:49;;;;;;;;;;;;;;;21.86;36.17;96326.34;10469185;28;1873;-50
2022/01/01 23:39:50;;;;;;;;;;;;;;;21.85;36.21;96335.28;10458970;28;1852;-46
2022/01/01 23:44:51;;;;;;;;;;;;;;;21.86;35.90;96339.53;10463823;28;1787;-46
2022/01/01 23:49:52;;;;;;;;;;;;;;;21.86;35.86;96323.69;10464326;28;1989;-46
2022/01/01 23:54:59;;;;;;;;;;;;;;;21.86;35.65;96331.59;10461217;28;1786;-45
